sensor_id;sensor_type;location;lat;lon;timestamp;P1;durP1;ratioP1;P2;durP2;ratioP2
66585;SDS011;53444;45.822;16.092;2022-12-07T00:01:04;37.47;;;19.23;;
66585;SDS011;53444;45.822;16.092;2022-12-07T00:03:31;39.50;;;19.33;;
66585;SDS011;53444;45.822;16.092;2022-12-07T00:05:58;37.10;;;18.37;;
66585;SDS011;53444;45.822;16.092;2022-12-07T00:08:26;41.63;;;19.25;;
66585;SDS011;53444;45.822;16.092;2022-12-07T00:10:53;36.45;;;17.67;;
66585;SDS011;53444;45.822;16.092;2022-12-07T00:13:20;35.63;;;17.50;;
66585;SDS011;53444;45.822;16.092;2022-12-07T00:15:46;39.28;;;19.23;;
66585;SDS011;53444;45.822;16.092;2022-12-07T00:18:13;31.50;;;17.13;;
66585;SDS011;53444;45.822;16.092;2022-12-07T00:20:39;34.17;;;16.25;;
66585;SDS011;53444;45.822;16.092;2022-12-07T00:23:06;35.97;;;17.42;;
66585;SDS011;53444;45.822;16.092;2022-12-07T00:25:34;38.38;;;17.80;;
66585;SDS011;53444;45.822;16.092;2022-12-07T00:28:00;39.35;;;20.10;;
66585;SDS011;53444;45.822;16.092;2022-12-07T00:30:27;35.93;;;17.40;;
66585;SDS011;53444;45.822;16.092;2022-12-07T00:32:54;37.63;;;17.88;;
66585;SDS011;53444;45.822;16.092;2022-12-07T00:35:20;37.13;;;17.88;;
66585;SDS011;53444;45.822;16.092;2022-12-07T00:37:47;32.97;;;16.00;;
66585;SDS011;53444;45.822;16.092;2022-12-07T00:40:13;29.10;;;15.57;;
66585;SDS011;53444;45.822;16.092;2022-12-07T00:42:41;31.67;;;15.00;;
66585;SDS011;53444;45.822;16.092;2022-12-07T00:45:08;33.47;;;16.17;;
66585;SDS011;53444;45.822;16.092;2022-12-07T00:47:40;33.88;;;16.63;;
66585;SDS011;53444;45.822;16.092;2022-12-07T00:50:22;32.67;;;16.17;;
66585;SDS011;53444;45.822;16.092;2022-12-07T00:52:48;33.30;;;16.67;;
66585;SDS011;53444;45.822;16.092;2022-12-07T00:55:15;33.60;;;16.70;;
66585;SDS011;53444;45.822;16.092;2022-12-07T00:57:43;36.72;;;15.95;;
66585;SDS011;53444;45.822;16.092;2022-12-07T01:00:10;38.88;;;17.98;;
66585;SDS011;53444;45.822;16.092;2022-12-07T01:02:37;35.42;;;17.55;;
66585;SDS011;53444;45.822;16.092;2022-12-07T01:05:04;38.17;;;17.90;;
66585;SDS011;53444;45.822;16.092;2022-12-07T01:07:31;35.57;;;17.20;;
66585;SDS011;53444;45.822;16.092;2022-12-07T01:09:58;35.25;;;17.83;;
66585;SDS011;53444;45.822;16.092;2022-12-07T01:12:24;33.45;;;17.50;;
66585;SDS011;53444;45.822;16.092;2022-12-07T01:14:52;37.50;;;17.55;;
66585;SDS011;53444;45.822;16.092;2022-12-07T01:17:19;37.55;;;18.60;;
66585;SDS011;53444;45.822;16.092;2022-12-07T01:19:45;36.27;;;17.67;;
66585;SDS011;53444;45.822;16.092;2022-12-07T01:22:12;35.88;;;17.42;;
66585;SDS011;53444;45.822;16.092;2022-12-07T01:24:39;33.35;;;16.33;;
66585;SDS011;53444;45.822;16.092;2022-12-07T01:27:05;34.35;;;16.48;;
66585;SDS011;53444;45.822;16.092;2022-12-07T01:29:32;30.75;;;16.92;;
66585;SDS011;53444;45.822;16.092;2022-12-07T01:32:00;29.57;;;15.70;;
66585;SDS011;53444;45.822;16.092;2022-12-07T01:34:26;28.98;;;15.52;;
66585;SDS011;53444;45.822;16.092;2022-12-07T01:36:53;30.70;;;14.63;;
66585;SDS011;53444;45.822;16.092;2022-12-07T01:39:19;30.70;;;14.65;;
66585;SDS011;53444;45.822;16.092;2022-12-07T01:41:46;29.63;;;14.60;;
66585;SDS011;53444;45.822;16.092;2022-12-07T01:44:15;24.00;;;12.37;;
66585;SDS011;53444;45.822;16.092;2022-12-07T01:46:44;27.25;;;13.07;;
66585;SDS011;53444;45.822;16.092;2022-12-07T01:49:14;25.67;;;13.13;;
66585;SDS011;53444;45.822;16.092;2022-12-07T01:51:45;22.35;;;11.15;;
66585;SDS011;53444;45.822;16.092;2022-12-07T01:54:13;20.35;;;11.70;;
66585;SDS011;53444;45.822;16.092;2022-12-07T01:56:42;25.03;;;11.73;;
66585;SDS011;53444;45.822;16.092;2022-12-07T01:59:15;25.58;;;11.85;;
66585;SDS011;53444;45.822;16.092;2022-12-07T02:01:43;19.42;;;10.52;;
66585;SDS011;53444;45.822;16.092;2022-12-07T02:04:10;25.55;;;11.68;;
66585;SDS011;53444;45.822;16.092;2022-12-07T02:06:39;28.00;;;13.25;;
66585;SDS011;53444;45.822;16.092;2022-12-07T02:09:08;22.93;;;11.53;;
66585;SDS011;53444;45.822;16.092;2022-12-07T02:11:34;24.88;;;11.60;;
66585;SDS011;53444;45.822;16.092;2022-12-07T02:14:01;24.92;;;12.45;;
66585;SDS011;53444;45.822;16.092;2022-12-07T02:16:30;21.17;;;10.95;;
66585;SDS011;53444;45.822;16.092;2022-12-07T02:19:08;25.30;;;12.15;;
66585;SDS011;53444;45.822;16.092;2022-12-07T02:21:53;24.03;;;11.83;;
66585;SDS011;53444;45.822;16.092;2022-12-07T02:24:33;24.60;;;11.25;;
66585;SDS011;53444;45.822;16.092;2022-12-07T02:27:16;22.45;;;11.65;;
66585;SDS011;53444;45.822;16.092;2022-12-07T02:29:56;22.42;;;12.80;;
66585;SDS011;53444;45.822;16.092;2022-12-07T02:32:27;23.08;;;11.73;;
66585;SDS011;53444;45.822;16.092;2022-12-07T02:35:01;22.07;;;10.97;;
66585;SDS011;53444;45.822;16.092;2022-12-07T02:37:34;21.55;;;10.77;;
66585;SDS011;53444;45.822;16.092;2022-12-07T02:40:06;25.83;;;11.95;;
66585;SDS011;53444;45.822;16.092;2022-12-07T02:42:38;23.23;;;11.88;;
66585;SDS011;53444;45.822;16.092;2022-12-07T02:45:12;26.42;;;13.27;;
66585;SDS011;53444;45.822;16.092;2022-12-07T02:47:43;22.53;;;11.67;;
66585;SDS011;53444;45.822;16.092;2022-12-07T02:50:11;19.70;;;11.73;;
66585;SDS011;53444;45.822;16.092;2022-12-07T02:52:38;24.20;;;12.65;;
66585;SDS011;53444;45.822;16.092;2022-12-07T02:55:05;26.15;;;13.63;;
66585;SDS011;53444;45.822;16.092;2022-12-07T02:57:37;25.10;;;13.95;;
66585;SDS011;53444;45.822;16.092;2022-12-07T03:00:17;23.57;;;12.90;;
66585;SDS011;53444;45.822;16.092;2022-12-07T03:02:48;21.67;;;11.57;;
66585;SDS011;53444;45.822;16.092;2022-12-07T03:05:22;23.63;;;11.50;;
66585;SDS011;53444;45.822;16.092;2022-12-07T03:07:58;18.45;;;10.35;;
66585;SDS011;53444;45.822;16.092;2022-12-07T03:10:32;21.92;;;12.55;;
66585;SDS011;53444;45.822;16.092;2022-12-07T03:13:05;20.27;;;11.13;;
66585;SDS011;53444;45.822;16.092;2022-12-07T03:15:39;22.60;;;12.13;;
66585;SDS011;53444;45.822;16.092;2022-12-07T03:18:09;21.88;;;10.77;;
66585;SDS011;53444;45.822;16.092;2022-12-07T03:20:38;22.67;;;11.60;;
66585;SDS011;53444;45.822;16.092;2022-12-07T03:23:08;25.20;;;12.02;;
66585;SDS011;53444;45.822;16.092;2022-12-07T03:25:38;21.90;;;11.70;;
66585;SDS011;53444;45.822;16.092;2022-12-07T03:28:07;20.63;;;11.00;;
66585;SDS011;53444;45.822;16.092;2022-12-07T03:30:38;23.20;;;11.52;;
66585;SDS011;53444;45.822;16.092;2022-12-07T03:33:09;20.33;;;10.77;;
66585;SDS011;53444;45.822;16.092;2022-12-07T03:35:39;22.63;;;10.93;;
66585;SDS011;53444;45.822;16.092;2022-12-07T03:38:11;17.83;;;9.80;;
66585;SDS011;53444;45.822;16.092;2022-12-07T03:40:43;19.98;;;9.73;;
66585;SDS011;53444;45.822;16.092;2022-12-07T03:43:14;19.10;;;8.82;;
66585;SDS011;53444;45.822;16.092;2022-12-07T03:45:44;17.40;;;9.57;;
66585;SDS011;53444;45.822;16.092;2022-12-07T03:48:20;20.08;;;10.35;;
66585;SDS011;53444;45.822;16.092;2022-12-07T03:50:55;17.23;;;9.13;;
66585;SDS011;53444;45.822;16.092;2022-12-07T03:53:29;18.13;;;8.95;;
66585;SDS011;53444;45.822;16.092;2022-12-07T03:56:02;17.55;;;9.82;;
66585;SDS011;53444;45.822;16.092;2022-12-07T03:58:29;21.58;;;10.85;;
66585;SDS011;53444;45.822;16.092;2022-12-07T04:00:58;21.45;;;10.85;;
66585;SDS011;53444;45.822;16.092;2022-12-07T04:03:25;20.73;;;9.43;;
66585;SDS011;53444;45.822;16.092;2022-12-07T04:05:51;20.15;;;9.68;;
66585;SDS011;53444;45.822;16.092;2022-12-07T04:08:18;19.10;;;10.75;;
66585;SDS011;53444;45.822;16.092;2022-12-07T04:10:45;18.75;;;9.85;;
66585;SDS011;53444;45.822;16.092;2022-12-07T04:13:12;15.50;;;8.57;;
66585;SDS011;53444;45.822;16.092;2022-12-07T04:15:39;20.60;;;9.43;;
66585;SDS011;53444;45.822;16.092;2022-12-07T04:18:07;16.33;;;8.85;;
66585;SDS011;53444;45.822;16.092;2022-12-07T04:20:33;16.92;;;9.27;;
66585;SDS011;53444;45.822;16.092;2022-12-07T04:23:00;16.48;;;9.02;;
66585;SDS011;53444;45.822;16.092;2022-12-07T04:25:26;14.73;;;8.55;;
66585;SDS011;53444;45.822;16.092;2022-12-07T04:27:53;20.47;;;8.77;;
66585;SDS011;53444;45.822;16.092;2022-12-07T04:30:20;15.50;;;7.97;;
66585;SDS011;53444;45.822;16.092;2022-12-07T04:32:46;15.60;;;8.85;;
66585;SDS011;53444;45.822;16.092;2022-12-07T04:35:14;15.18;;;8.43;;
66585;SDS011;53444;45.822;16.092;2022-12-07T04:37:41;18.15;;;8.18;;
66585;SDS011;53444;45.822;16.092;2022-12-07T04:40:08;14.40;;;7.67;;
66585;SDS011;53444;45.822;16.092;2022-12-07T04:42:36;13.90;;;7.60;;
66585;SDS011;53444;45.822;16.092;2022-12-07T04:45:03;22.33;;;10.40;;
66585;SDS011;53444;45.822;16.092;2022-12-07T04:47:30;19.55;;;10.10;;
66585;SDS011;53444;45.822;16.092;2022-12-07T04:49:57;22.17;;;10.05;;
66585;SDS011;53444;45.822;16.092;2022-12-07T04:52:25;18.57;;;9.43;;
66585;SDS011;53444;45.822;16.092;2022-12-07T04:54:51;14.70;;;8.43;;
66585;SDS011;53444;45.822;16.092;2022-12-07T04:57:18;15.15;;;8.57;;
66585;SDS011;53444;45.822;16.092;2022-12-07T04:59:44;15.32;;;8.27;;
66585;SDS011;53444;45.822;16.092;2022-12-07T05:02:11;16.05;;;8.63;;
66585;SDS011;53444;45.822;16.092;2022-12-07T05:04:40;14.67;;;8.40;;
66585;SDS011;53444;45.822;16.092;2022-12-07T05:07:06;15.63;;;8.38;;
66585;SDS011;53444;45.822;16.092;2022-12-07T05:09:34;15.95;;;8.55;;
66585;SDS011;53444;45.822;16.092;2022-12-07T05:12:01;15.50;;;8.00;;
66585;SDS011;53444;45.822;16.092;2022-12-07T05:14:30;17.90;;;9.68;;
66585;SDS011;53444;45.822;16.092;2022-12-07T05:16:57;20.60;;;9.47;;
66585;SDS011;53444;45.822;16.092;2022-12-07T05:19:23;15.57;;;8.77;;
66585;SDS011;53444;45.822;16.092;2022-12-07T05:21:51;17.20;;;9.40;;
66585;SDS011;53444;45.822;16.092;2022-12-07T05:24:17;25.77;;;12.18;;
66585;SDS011;53444;45.822;16.092;2022-12-07T05:26:45;26.48;;;12.82;;
66585;SDS011;53444;45.822;16.092;2022-12-07T05:29:13;21.80;;;10.63;;
66585;SDS011;53444;45.822;16.092;2022-12-07T05:31:40;20.15;;;10.93;;
66585;SDS011;53444;45.822;16.092;2022-12-07T05:34:07;19.73;;;10.15;;
66585;SDS011;53444;45.822;16.092;2022-12-07T05:36:33;17.35;;;8.60;;
66585;SDS011;53444;45.822;16.092;2022-12-07T05:39:00;17.63;;;8.48;;
66585;SDS011;53444;45.822;16.092;2022-12-07T05:41:27;14.77;;;7.67;;
66585;SDS011;53444;45.822;16.092;2022-12-07T05:44:12;16.20;;;7.70;;
66585;SDS011;53444;45.822;16.092;2022-12-07T05:46:40;14.50;;;7.65;;
66585;SDS011;53444;45.822;16.092;2022-12-07T05:49:06;14.35;;;7.07;;
66585;SDS011;53444;45.822;16.092;2022-12-07T05:51:33;16.38;;;8.23;;
66585;SDS011;53444;45.822;16.092;2022-12-07T05:53:59;15.03;;;8.40;;
66585;SDS011;53444;45.822;16.092;2022-12-07T05:56:26;16.75;;;8.00;;
66585;SDS011;53444;45.822;16.092;2022-12-07T05:58:53;14.70;;;7.70;;
66585;SDS011;53444;45.822;16.092;2022-12-07T06:01:38;13.82;;;7.38;;
66585;SDS011;53444;45.822;16.092;2022-12-07T06:04:05;16.77;;;8.55;;
66585;SDS011;53444;45.822;16.092;2022-12-07T06:06:31;19.33;;;8.37;;
66585;SDS011;53444;45.822;16.092;2022-12-07T06:08:58;13.77;;;7.70;;
66585;SDS011;53444;45.822;16.092;2022-12-07T06:11:25;13.65;;;6.95;;
66585;SDS011;53444;45.822;16.092;2022-12-07T06:14:09;13.00;;;6.45;;
66585;SDS011;53444;45.822;16.092;2022-12-07T06:16:35;14.30;;;7.72;;
66585;SDS011;53444;45.822;16.092;2022-12-07T06:19:03;19.13;;;6.77;;
66585;SDS011;53444;45.822;16.092;2022-12-07T06:21:30;13.20;;;7.38;;
66585;SDS011;53444;45.822;16.092;2022-12-07T06:23:56;13.93;;;7.50;;
66585;SDS011;53444;45.822;16.092;2022-12-07T06:26:23;16.02;;;7.75;;
66585;SDS011;53444;45.822;16.092;2022-12-07T06:28:49;12.02;;;7.47;;
66585;SDS011;53444;45.822;16.092;2022-12-07T06:31:16;15.27;;;7.80;;
66585;SDS011;53444;45.822;16.092;2022-12-07T06:33:43;14.80;;;7.85;;
66585;SDS011;53444;45.822;16.092;2022-12-07T06:36:11;13.90;;;7.55;;
66585;SDS011;53444;45.822;16.092;2022-12-07T06:38:38;14.50;;;7.47;;
66585;SDS011;53444;45.822;16.092;2022-12-07T06:41:04;11.80;;;7.25;;
66585;SDS011;53444;45.822;16.092;2022-12-07T06:43:31;14.40;;;7.70;;
66585;SDS011;53444;45.822;16.092;2022-12-07T06:45:58;13.82;;;7.32;;
66585;SDS011;53444;45.822;16.092;2022-12-07T06:48:24;16.05;;;8.45;;
66585;SDS011;53444;45.822;16.092;2022-12-07T06:50:51;15.65;;;7.95;;
66585;SDS011;53444;45.822;16.092;2022-12-07T06:53:21;14.82;;;8.15;;
66585;SDS011;53444;45.822;16.092;2022-12-07T06:55:52;16.20;;;8.63;;
66585;SDS011;53444;45.822;16.092;2022-12-07T06:58:25;16.13;;;9.35;;
66585;SDS011;53444;45.822;16.092;2022-12-07T07:00:52;20.95;;;9.95;;
66585;SDS011;53444;45.822;16.092;2022-12-07T07:03:19;19.13;;;9.70;;
66585;SDS011;53444;45.822;16.092;2022-12-07T07:05:46;21.73;;;10.57;;
66585;SDS011;53444;45.822;16.092;2022-12-07T07:08:13;25.57;;;11.67;;
66585;SDS011;53444;45.822;16.092;2022-12-07T07:10:41;24.23;;;11.77;;
66585;SDS011;53444;45.822;16.092;2022-12-07T07:13:08;25.83;;;12.57;;
66585;SDS011;53444;45.822;16.092;2022-12-07T07:15:34;25.23;;;13.13;;
66585;SDS011;53444;45.822;16.092;2022-12-07T07:18:03;23.80;;;12.85;;
66585;SDS011;53444;45.822;16.092;2022-12-07T07:20:30;20.87;;;11.00;;
66585;SDS011;53444;45.822;16.092;2022-12-07T07:22:56;20.50;;;11.23;;
66585;SDS011;53444;45.822;16.092;2022-12-07T07:25:23;19.73;;;10.80;;
66585;SDS011;53444;45.822;16.092;2022-12-07T07:27:51;19.45;;;10.77;;
66585;SDS011;53444;45.822;16.092;2022-12-07T07:30:19;28.25;;;13.75;;
66585;SDS011;53444;45.822;16.092;2022-12-07T07:32:46;31.17;;;12.50;;
66585;SDS011;53444;45.822;16.092;2022-12-07T07:35:13;23.20;;;11.57;;
66585;SDS011;53444;45.822;16.092;2022-12-07T07:37:40;25.17;;;12.77;;
66585;SDS011;53444;45.822;16.092;2022-12-07T07:40:07;27.17;;;13.20;;
66585;SDS011;53444;45.822;16.092;2022-12-07T07:42:35;29.85;;;14.50;;
66585;SDS011;53444;45.822;16.092;2022-12-07T07:45:03;30.73;;;15.30;;
66585;SDS011;53444;45.822;16.092;2022-12-07T07:47:30;33.05;;;15.05;;
66585;SDS011;53444;45.822;16.092;2022-12-07T07:49:57;30.27;;;15.45;;
66585;SDS011;53444;45.822;16.092;2022-12-07T07:52:25;35.28;;;17.38;;
66585;SDS011;53444;45.822;16.092;2022-12-07T07:54:55;29.83;;;15.27;;
66585;SDS011;53444;45.822;16.092;2022-12-07T07:57:22;30.27;;;14.30;;
66585;SDS011;53444;45.822;16.092;2022-12-07T07:59:49;27.40;;;13.70;;
66585;SDS011;53444;45.822;16.092;2022-12-07T08:02:18;28.58;;;15.10;;
66585;SDS011;53444;45.822;16.092;2022-12-07T08:04:46;25.63;;;13.68;;
66585;SDS011;53444;45.822;16.092;2022-12-07T08:07:13;24.13;;;13.57;;
66585;SDS011;53444;45.822;16.092;2022-12-07T08:09:40;20.87;;;11.33;;
66585;SDS011;53444;45.822;16.092;2022-12-07T08:12:07;20.77;;;11.68;;
66585;SDS011;53444;45.822;16.092;2022-12-07T08:14:34;24.75;;;13.20;;
66585;SDS011;53444;45.822;16.092;2022-12-07T08:17:01;24.13;;;12.60;;
66585;SDS011;53444;45.822;16.092;2022-12-07T08:19:31;22.48;;;12.48;;
66585;SDS011;53444;45.822;16.092;2022-12-07T08:21:58;22.13;;;11.90;;
66585;SDS011;53444;45.822;16.092;2022-12-07T08:24:24;20.73;;;11.60;;
66585;SDS011;53444;45.822;16.092;2022-12-07T08:26:51;21.17;;;11.27;;
66585;SDS011;53444;45.822;16.092;2022-12-07T08:29:18;24.75;;;11.90;;
66585;SDS011;53444;45.822;16.092;2022-12-07T08:31:48;23.25;;;13.63;;
66585;SDS011;53444;45.822;16.092;2022-12-07T08:34:14;22.90;;;12.03;;
66585;SDS011;53444;45.822;16.092;2022-12-07T08:36:45;21.42;;;11.20;;
66585;SDS011;53444;45.822;16.092;2022-12-07T08:39:12;21.23;;;11.48;;
66585;SDS011;53444;45.822;16.092;2022-12-07T08:41:39;19.63;;;11.00;;
66585;SDS011;53444;45.822;16.092;2022-12-07T08:44:05;25.08;;;10.20;;
66585;SDS011;53444;45.822;16.092;2022-12-07T08:46:32;18.37;;;9.70;;
66585;SDS011;53444;45.822;16.092;2022-12-07T08:49:12;17.17;;;9.32;;
66585;SDS011;53444;45.822;16.092;2022-12-07T08:51:41;16.00;;;9.50;;
66585;SDS011;53444;45.822;16.092;2022-12-07T08:54:10;16.42;;;8.45;;
66585;SDS011;53444;45.822;16.092;2022-12-07T08:56:40;16.92;;;9.18;;
66585;SDS011;53444;45.822;16.092;2022-12-07T08:59:07;13.30;;;8.13;;
66585;SDS011;53444;45.822;16.092;2022-12-07T09:01:34;14.45;;;8.40;;
66585;SDS011;53444;45.822;16.092;2022-12-07T09:04:01;16.52;;;9.80;;
66585;SDS011;53444;45.822;16.092;2022-12-07T09:06:28;16.35;;;8.88;;
66585;SDS011;53444;45.822;16.092;2022-12-07T09:08:56;15.80;;;9.38;;
66585;SDS011;53444;45.822;16.092;2022-12-07T09:11:26;15.37;;;8.27;;
66585;SDS011;53444;45.822;16.092;2022-12-07T09:13:53;15.88;;;8.10;;
66585;SDS011;53444;45.822;16.092;2022-12-07T09:16:20;16.65;;;8.20;;
66585;SDS011;53444;45.822;16.092;2022-12-07T09:18:47;16.20;;;9.43;;
66585;SDS011;53444;45.822;16.092;2022-12-07T09:21:14;15.45;;;8.25;;
66585;SDS011;53444;45.822;16.092;2022-12-07T09:23:40;16.40;;;8.57;;
66585;SDS011;53444;45.822;16.092;2022-12-07T09:26:07;15.05;;;8.32;;
66585;SDS011;53444;45.822;16.092;2022-12-07T09:28:36;16.55;;;8.95;;
66585;SDS011;53444;45.822;16.092;2022-12-07T09:31:02;16.95;;;8.98;;
66585;SDS011;53444;45.822;16.092;2022-12-07T09:33:30;16.30;;;9.73;;
66585;SDS011;53444;45.822;16.092;2022-12-07T09:35:57;17.03;;;9.87;;
66585;SDS011;53444;45.822;16.092;2022-12-07T09:38:24;15.10;;;8.98;;
66585;SDS011;53444;45.822;16.092;2022-12-07T09:40:51;16.10;;;8.75;;
66585;SDS011;53444;45.822;16.092;2022-12-07T09:43:20;21.15;;;10.32;;
66585;SDS011;53444;45.822;16.092;2022-12-07T09:45:50;21.48;;;11.90;;
66585;SDS011;53444;45.822;16.092;2022-12-07T09:48:19;19.47;;;10.80;;
66585;SDS011;53444;45.822;16.092;2022-12-07T09:50:47;29.83;;;13.65;;
66585;SDS011;53444;45.822;16.092;2022-12-07T09:53:18;20.45;;;10.55;;
66585;SDS011;53444;45.822;16.092;2022-12-07T09:55:48;17.00;;;10.18;;
66585;SDS011;53444;45.822;16.092;2022-12-07T09:58:17;18.27;;;10.60;;
66585;SDS011;53444;45.822;16.092;2022-12-07T10:00:47;19.37;;;10.57;;
66585;SDS011;53444;45.822;16.092;2022-12-07T10:03:15;15.82;;;9.90;;
66585;SDS011;53444;45.822;16.092;2022-12-07T10:05:44;15.68;;;9.98;;
66585;SDS011;53444;45.822;16.092;2022-12-07T10:08:14;15.40;;;9.50;;
66585;SDS011;53444;45.822;16.092;2022-12-07T10:10:42;18.48;;;9.48;;
66585;SDS011;53444;45.822;16.092;2022-12-07T10:13:11;16.30;;;9.43;;
66585;SDS011;53444;45.822;16.092;2022-12-07T10:15:43;15.43;;;8.52;;
66585;SDS011;53444;45.822;16.092;2022-12-07T10:18:29;18.00;;;9.55;;
66585;SDS011;53444;45.822;16.092;2022-12-07T10:21:00;18.20;;;9.60;;
66585;SDS011;53444;45.822;16.092;2022-12-07T10:23:28;19.48;;;11.00;;
66585;SDS011;53444;45.822;16.092;2022-12-07T10:25:55;24.73;;;13.83;;
66585;SDS011;53444;45.822;16.092;2022-12-07T10:28:21;26.13;;;14.07;;
66585;SDS011;53444;45.822;16.092;2022-12-07T10:30:50;26.42;;;14.95;;
66585;SDS011;53444;45.822;16.092;2022-12-07T10:33:33;19.63;;;9.35;;
66585;SDS011;53444;45.822;16.092;2022-12-07T10:36:15;23.42;;;13.23;;
66585;SDS011;53444;45.822;16.092;2022-12-07T10:38:44;27.57;;;13.30;;
66585;SDS011;53444;45.822;16.092;2022-12-07T10:41:12;22.65;;;11.57;;
66585;SDS011;53444;45.822;16.092;2022-12-07T10:43:46;27.52;;;12.38;;
66585;SDS011;53444;45.822;16.092;2022-12-07T10:46:21;20.00;;;10.25;;
66585;SDS011;53444;45.822;16.092;2022-12-07T10:49:24;16.38;;;9.98;;
66585;SDS011;53444;45.822;16.092;2022-12-07T10:52:08;18.33;;;9.70;;
66585;SDS011;53444;45.822;16.092;2022-12-07T10:54:43;20.75;;;10.95;;
66585;SDS011;53444;45.822;16.092;2022-12-07T10:57:22;18.23;;;10.60;;
66585;SDS011;53444;45.822;16.092;2022-12-07T11:00:06;23.50;;;11.77;;
66585;SDS011;53444;45.822;16.092;2022-12-07T11:02:51;26.55;;;10.88;;
66585;SDS011;53444;45.822;16.092;2022-12-07T11:05:30;24.73;;;12.50;;
66585;SDS011;53444;45.822;16.092;2022-12-07T11:08:05;19.20;;;10.23;;
66585;SDS011;53444;45.822;16.092;2022-12-07T11:10:43;24.05;;;12.10;;
66585;SDS011;53444;45.822;16.092;2022-12-07T11:13:21;23.88;;;12.25;;
66585;SDS011;53444;45.822;16.092;2022-12-07T11:19:03;23.73;;;11.33;;
66585;SDS011;53444;45.822;16.092;2022-12-07T11:21:42;23.23;;;11.95;;
66585;SDS011;53444;45.822;16.092;2022-12-07T11:24:14;24.80;;;12.75;;
66585;SDS011;53444;45.822;16.092;2022-12-07T11:29:47;18.23;;;11.43;;
66585;SDS011;53444;45.822;16.092;2022-12-07T11:32:22;17.33;;;10.23;;
66585;SDS011;53444;45.822;16.092;2022-12-07T11:35:03;20.50;;;10.95;;
66585;SDS011;53444;45.822;16.092;2022-12-07T11:37:36;22.58;;;11.05;;
66585;SDS011;53444;45.822;16.092;2022-12-07T11:40:11;17.42;;;10.65;;
66585;SDS011;53444;45.822;16.092;2022-12-07T11:42:44;20.65;;;11.43;;
66585;SDS011;53444;45.822;16.092;2022-12-07T11:45:17;19.70;;;11.67;;
66585;SDS011;53444;45.822;16.092;2022-12-07T11:47:48;22.75;;;10.77;;
66585;SDS011;53444;45.822;16.092;2022-12-07T11:50:26;21.42;;;11.25;;
66585;SDS011;53444;45.822;16.092;2022-12-07T11:53:00;23.17;;;11.45;;
66585;SDS011;53444;45.822;16.092;2022-12-07T11:55:30;20.13;;;10.55;;
66585;SDS011;53444;45.822;16.092;2022-12-07T11:58:10;20.30;;;10.90;;
66585;SDS011;53444;45.822;16.092;2022-12-07T12:00:46;20.17;;;10.60;;
66585;SDS011;53444;45.822;16.092;2022-12-07T12:03:15;21.75;;;11.35;;
66585;SDS011;53444;45.822;16.092;2022-12-07T12:05:46;18.85;;;9.75;;
66585;SDS011;53444;45.822;16.092;2022-12-07T12:08:17;19.52;;;10.25;;
66585;SDS011;53444;45.822;16.092;2022-12-07T12:10:51;16.40;;;9.27;;
66585;SDS011;53444;45.822;16.092;2022-12-07T12:13:38;22.27;;;10.93;;
66585;SDS011;53444;45.822;16.092;2022-12-07T12:16:21;21.15;;;10.13;;
66585;SDS011;53444;45.822;16.092;2022-12-07T12:19:07;21.27;;;10.93;;
66585;SDS011;53444;45.822;16.092;2022-12-07T12:21:45;39.97;;;18.83;;
66585;SDS011;53444;45.822;16.092;2022-12-07T12:24:15;30.53;;;15.17;;
66585;SDS011;53444;45.822;16.092;2022-12-07T12:26:48;22.40;;;12.77;;
66585;SDS011;53444;45.822;16.092;2022-12-07T12:29:20;16.75;;;8.05;;
66585;SDS011;53444;45.822;16.092;2022-12-07T12:32:04;14.48;;;7.40;;
66585;SDS011;53444;45.822;16.092;2022-12-07T12:34:37;12.55;;;7.20;;
66585;SDS011;53444;45.822;16.092;2022-12-07T12:52:07;12.60;;;6.80;;
66585;SDS011;53444;45.822;16.092;2022-12-07T12:55:12;11.40;;;5.90;;
66585;SDS011;53444;45.822;16.092;2022-12-07T12:57:47;12.38;;;6.72;;
66585;SDS011;53444;45.822;16.092;2022-12-07T13:00:34;12.30;;;7.15;;
66585;SDS011;53444;45.822;16.092;2022-12-07T13:03:01;13.70;;;8.13;;
66585;SDS011;53444;45.822;16.092;2022-12-07T13:05:28;16.10;;;7.53;;
66585;SDS011;53444;45.822;16.092;2022-12-07T13:07:57;12.95;;;7.10;;
66585;SDS011;53444;45.822;16.092;2022-12-07T13:10:41;13.43;;;7.45;;
66585;SDS011;53444;45.822;16.092;2022-12-07T13:13:30;15.00;;;7.55;;
66585;SDS011;53444;45.822;16.092;2022-12-07T13:25:18;12.15;;;6.82;;
66585;SDS011;53444;45.822;16.092;2022-12-07T13:28:11;12.35;;;6.28;;
66585;SDS011;53444;45.822;16.092;2022-12-07T13:30:45;9.93;;;5.95;;
66585;SDS011;53444;45.822;16.092;2022-12-07T13:33:27;10.70;;;6.00;;
66585;SDS011;53444;45.822;16.092;2022-12-07T13:35:55;15.10;;;7.25;;
66585;SDS011;53444;45.822;16.092;2022-12-07T13:38:26;13.60;;;6.93;;
66585;SDS011;53444;45.822;16.092;2022-12-07T13:41:11;15.07;;;7.18;;
66585;SDS011;53444;45.822;16.092;2022-12-07T13:43:43;17.25;;;7.05;;
66585;SDS011;53444;45.822;16.092;2022-12-07T13:46:12;12.27;;;6.30;;
66585;SDS011;53444;45.822;16.092;2022-12-07T13:48:43;11.93;;;5.90;;
66585;SDS011;53444;45.822;16.092;2022-12-07T13:51:19;9.63;;;5.40;;
66585;SDS011;53444;45.822;16.092;2022-12-07T13:53:47;11.20;;;5.38;;
66585;SDS011;53444;45.822;16.092;2022-12-07T13:56:15;15.38;;;9.20;;
66585;SDS011;53444;45.822;16.092;2022-12-07T13:58:42;12.47;;;6.50;;
66585;SDS011;53444;45.822;16.092;2022-12-07T14:01:09;15.85;;;7.57;;
66585;SDS011;53444;45.822;16.092;2022-12-07T14:03:39;10.85;;;5.82;;
66585;SDS011;53444;45.822;16.092;2022-12-07T14:06:10;9.68;;;5.03;;
66585;SDS011;53444;45.822;16.092;2022-12-07T14:08:41;10.00;;;6.07;;
66585;SDS011;53444;45.822;16.092;2022-12-07T14:11:08;12.17;;;6.53;;
66585;SDS011;53444;45.822;16.092;2022-12-07T14:13:40;11.30;;;6.68;;
66585;SDS011;53444;45.822;16.092;2022-12-07T14:16:18;10.50;;;5.50;;
66585;SDS011;53444;45.822;16.092;2022-12-07T14:18:51;11.35;;;5.85;;
66585;SDS011;53444;45.822;16.092;2022-12-07T14:21:19;10.98;;;6.13;;
66585;SDS011;53444;45.822;16.092;2022-12-07T14:24:02;14.47;;;6.80;;
66585;SDS011;53444;45.822;16.092;2022-12-07T14:26:41;11.68;;;6.18;;
66585;SDS011;53444;45.822;16.092;2022-12-07T14:32:17;14.80;;;7.05;;
66585;SDS011;53444;45.822;16.092;2022-12-07T14:34:59;12.48;;;6.70;;
66585;SDS011;53444;45.822;16.092;2022-12-07T14:37:27;12.60;;;6.50;;
66585;SDS011;53444;45.822;16.092;2022-12-07T14:39:56;14.23;;;7.68;;
66585;SDS011;53444;45.822;16.092;2022-12-07T14:42:23;12.18;;;6.75;;
66585;SDS011;53444;45.822;16.092;2022-12-07T14:44:53;13.30;;;7.45;;
66585;SDS011;53444;45.822;16.092;2022-12-07T14:47:20;16.05;;;8.20;;
66585;SDS011;53444;45.822;16.092;2022-12-07T14:49:47;16.00;;;7.87;;
66585;SDS011;53444;45.822;16.092;2022-12-07T14:52:16;15.45;;;8.10;;
66585;SDS011;53444;45.822;16.092;2022-12-07T14:54:45;15.20;;;8.10;;
66585;SDS011;53444;45.822;16.092;2022-12-07T14:57:12;13.80;;;7.72;;
66585;SDS011;53444;45.822;16.092;2022-12-07T14:59:38;15.60;;;8.68;;
66585;SDS011;53444;45.822;16.092;2022-12-07T15:02:05;22.43;;;10.03;;
66585;SDS011;53444;45.822;16.092;2022-12-07T15:04:33;17.98;;;8.80;;